Time;durP1;ratioP1;P1;durP2;ratioP2;P2;SDS_P1;SDS_P2;PMS_P1;PMS_P2;Temp;Humidity;BMP_temperature;BMP_pressure;BME280_temperature;BME280_humidity;BME280_pressure;Samples;Min_cycle;Max_cycle;Signal;HPM_P1;HPM_P2
2020/12/07 00:00:33;;;;;;;26.92;11.13;;;4.80;99.90;;;;;;5000761;28;20026;-59
2020/12/07 00:02:59;;;;;;;28.98;12.18;;;4.80;99.90;;;;;;4996420;28;20088;-62
2020/12/07 00:05:24;;;;;;;26.33;10.88;;;4.80;99.90;;;;;;5003335;28;20026;-61
2020/12/07 00:07:50;;;;;;;23.08;10.77;;;4.90;99.90;;;;;;4997635;28;20588;-60
2020/12/07 00:10:16;;;;;;;22.75;10.80;;;4.90;99.90;;;;;;5000325;28;20093;-59
2020/12/07 00:12:42;;;;;;;21.38;9.88;;;4.90;99.90;;;;;;5000001;28;20037;-60
2020/12/07 00:15:08;;;;;;;26.10;11.02;;;4.90;99.90;;;;;;4998881;28;20102;-60
2020/12/07 00:17:34;;;;;;;27.02;10.30;;;5.00;99.90;;;;;;5000440;28;20151;-60
2020/12/07 00:20:00;;;;;;;24.23;10.75;;;5.00;99.90;;;;;;4994361;28;20096;-61
2020/12/07 00:22:30;;;;;;;24.17;10.93;;;5.00;99.90;;;;;;4999419;28;20061;-61
2020/12/07 00:24:57;;;;;;;32.42;10.90;;;5.00;99.90;;;;;;4993395;28;20034;-61
2020/12/07 00:27:27;;;;;;;25.67;11.15;;;5.00;99.90;;;;;;5000213;28;20039;-61
2020/12/07 00:29:54;;;;;;;23.13;10.70;;;5.10;99.90;;;;;;4997561;28;20049;-61
2020/12/07 00:32:21;;;;;;;29.02;11.48;;;5.10;99.90;;;;;;4993447;28;20061;-61
2020/12/07 00:34:48;;;;;;;31.15;10.82;;;5.10;99.90;;;;;;5000588;28;20030;-62
2020/12/07 00:37:14;;;;;;;26.15;10.65;;;5.10;99.90;;;;;;4999223;28;20038;-59
2020/12/07 00:39:40;;;;;;;27.65;11.07;;;5.10;99.90;;;;;;4998716;28;20398;-62
2020/12/07 00:42:09;;;;;;;22.65;10.45;;;5.10;99.90;;;;;;4996722;28;20027;-62
2020/12/07 00:44:38;;;;;;;24.35;10.60;;;5.10;99.90;;;;;;4999256;28;20046;-61
2020/12/07 00:47:05;;;;;;;20.75;9.82;;;5.10;99.90;;;;;;5000402;28;20030;-60
2020/12/07 00:49:34;;;;;;;23.05;10.95;;;5.10;99.90;;;;;;4995334;28;20126;-61
2020/12/07 00:52:00;;;;;;;22.05;9.13;;;5.20;99.90;;;;;;5000241;28;20579;-61
2020/12/07 00:54:26;;;;;;;21.45;9.45;;;5.20;99.90;;;;;;4996915;28;20499;-61
2020/12/07 00:56:55;;;;;;;25.33;9.95;;;5.10;99.90;;;;;;4998959;28;20038;-62
2020/12/07 00:59:22;;;;;;;25.50;9.73;;;5.10;99.90;;;;;;4992800;28;20049;-62
2020/12/07 01:01:48;;;;;;;21.17;9.38;;;5.20;99.90;;;;;;5000761;28;20980;-63
2020/12/07 01:04:13;;;;;;;20.50;9.10;;;5.20;99.90;;;;;;4998873;28;20033;-62
2020/12/07 01:06:39;;;;;;;25.42;9.57;;;5.20;99.90;;;;;;4998172;28;20060;-60
2020/12/07 01:09:05;;;;;;;20.25;9.00;;;5.20;99.90;;;;;;4997844;28;20517;-60
2020/12/07 01:11:30;;;;;;;22.25;9.30;;;5.20;99.90;;;;;;4998082;28;20057;-62
2020/12/07 01:13:56;;;;;;;23.92;9.90;;;5.20;99.90;;;;;;4997160;28;20035;-60
2020/12/07 01:16:22;;;;;;;20.92;8.75;;;5.20;99.90;;;;;;4999821;28;20080;-60
2020/12/07 01:18:48;;;;;;;23.08;8.98;;;5.30;99.90;;;;;;4992917;28;20046;-61
2020/12/07 01:21:15;;;;;;;24.92;8.52;;;5.30;99.90;;;;;;4997031;28;20041;-61
2020/12/07 01:23:44;;;;;;;19.35;8.77;;;5.30;99.90;;;;;;4997724;28;20038;-60
2020/12/07 01:26:13;;;;;;;21.23;8.70;;;5.30;99.90;;;;;;4998759;28;20056;-61
2020/12/07 01:28:40;;;;;;;20.52;9.55;;;5.30;99.90;;;;;;4997538;28;20498;-62
2020/12/07 01:31:06;;;;;;;23.92;9.45;;;5.30;99.90;;;;;;4998622;28;20034;-60
2020/12/07 01:33:31;;;;;;;19.40;8.43;;;5.30;99.90;;;;;;4998090;28;20034;-61
2020/12/07 01:35:57;;;;;;;20.15;8.20;;;5.30;99.90;;;;;;4996076;28;20075;-61
2020/12/07 01:38:23;;;;;;;18.88;9.30;;;5.30;99.90;;;;;;4999027;28;20104;-60
2020/12/07 01:40:49;;;;;;;19.02;8.82;;;5.30;99.90;;;;;;4995668;28;20050;-61
2020/12/07 01:43:15;;;;;;;21.67;9.63;;;5.30;99.90;;;;;;4994676;28;20065;-60
2020/12/07 01:45:40;;;;;;;18.33;8.75;;;5.30;99.90;;;;;;4999361;28;20047;-60
2020/12/07 01:48:09;;;;;;;19.98;9.15;;;5.30;99.90;;;;;;4997854;28;20479;-60
2020/12/07 01:50:36;;;;;;;19.40;8.43;;;5.20;99.90;;;;;;4995794;28;20080;-60
2020/12/07 01:53:02;;;;;;;21.77;9.73;;;5.20;99.90;;;;;;4998296;28;20037;-61
2020/12/07 01:55:27;;;;;;;26.17;10.32;;;5.10;99.90;;;;;;4996703;28;20038;-62
2020/12/07 01:57:53;;;;;;;20.15;8.73;;;5.10;99.90;;;;;;4998076;28;20064;-61
2020/12/07 02:00:19;;;;;;;19.45;8.88;;;5.10;99.90;;;;;;4994195;28;20045;-62
2020/12/07 02:02:44;;;;;;;22.95;8.90;;;5.10;99.90;;;;;;4996672;28;20041;-62
2020/12/07 02:05:10;;;;;;;18.60;8.45;;;5.10;99.90;;;;;;4998733;28;20073;-60
2020/12/07 02:07:36;;;;;;;20.98;9.15;;;5.10;99.90;;;;;;4998308;28;20083;-60
2020/12/07 02:10:01;;;;;;;21.90;9.98;;;5.10;99.90;;;;;;5001507;28;20498;-60
2020/12/07 02:12:27;;;;;;;19.67;8.50;;;5.10;99.90;;;;;;5002063;28;20123;-60
2020/12/07 02:14:52;;;;;;;19.77;8.73;;;5.10;99.90;;;;;;4999033;28;20069;-61
2020/12/07 02:17:18;;;;;;;20.67;8.52;;;5.10;99.90;;;;;;5002646;28;20181;-60
2020/12/07 02:19:47;;;;;;;20.27;8.55;;;5.10;99.90;;;;;;4998076;28;20045;-61
2020/12/07 02:22:13;;;;;;;26.80;9.80;;;5.10;99.90;;;;;;4999993;28;20099;-60
2020/12/07 02:24:38;;;;;;;22.25;8.88;;;5.10;99.90;;;;;;5002244;28;20422;-60
2020/12/07 02:27:04;;;;;;;18.02;8.82;;;5.00;99.90;;;;;;5000773;28;20499;-61
2020/12/07 02:29:29;;;;;;;29.38;10.10;;;5.00;99.90;;;;;;5000537;28;20514;-62
2020/12/07 02:32:18;;;;;;;23.50;8.45;;;5.00;99.90;;;;;;5002267;28;20029;-60
2020/12/07 02:34:44;;;;;;;18.58;8.75;;;5.00;99.90;;;;;;4995269;28;20057;-62
2020/12/07 02:37:10;;;;;;;19.23;8.95;;;5.10;99.90;;;;;;5000588;28;20131;-60
2020/12/07 02:39:37;;;;;;;18.83;9.32;;;5.10;99.90;;;;;;5000792;28;20072;-60
2020/12/07 02:42:04;;;;;;;21.65;9.30;;;5.00;99.90;;;;;;5000842;28;20033;-61
2020/12/07 02:44:30;;;;;;;21.77;9.40;;;5.10;99.90;;;;;;5000743;28;20041;-61
2020/12/07 02:46:58;;;;;;;23.75;9.95;;;5.00;99.90;;;;;;5001456;28;20406;-62
2020/12/07 02:49:24;;;;;;;19.02;9.52;;;5.10;99.90;;;;;;4998484;28;20038;-62
2020/12/07 02:51:50;;;;;;;23.60;9.07;;;5.00;99.90;;;;;;4999677;28;20105;-61
2020/12/07 02:54:15;;;;;;;19.00;8.98;;;5.00;99.90;;;;;;5001361;28;20126;-60
2020/12/07 02:56:41;;;;;;;19.13;8.43;;;5.00;99.90;;;;;;4998503;28;20057;-61
2020/12/07 02:59:06;;;;;;;18.38;8.95;;;5.00;99.90;;;;;;5001992;28;20046;-62
2020/12/07 03:01:32;;;;;;;22.55;9.90;;;5.00;99.90;;;;;;4998455;28;20072;-60
2020/12/07 03:03:57;;;;;;;20.10;9.02;;;5.10;99.90;;;;;;5001889;28;20042;-61
2020/12/07 03:06:23;;;;;;;21.67;8.93;;;5.00;99.90;;;;;;4998310;28;20122;-61
2020/12/07 03:08:48;;;;;;;18.50;9.00;;;5.00;99.90;;;;;;5001834;28;20061;-61
2020/12/07 03:11:14;;;;;;;25.45;9.73;;;5.10;99.90;;;;;;4998977;28;20125;-60
2020/12/07 03:13:40;;;;;;;19.48;8.68;;;5.10;99.90;;;;;;5001723;28;20453;-61
2020/12/07 03:16:05;;;;;;;17.27;7.75;;;5.10;99.90;;;;;;4999692;28;20033;-61
2020/12/07 03:18:31;;;;;;;20.25;8.68;;;5.10;99.90;;;;;;4999872;28;20114;-60
2020/12/07 03:20:56;;;;;;;26.13;9.07;;;5.10;99.90;;;;;;4996074;28;20072;-61
2020/12/07 03:23:22;;;;;;;17.60;8.50;;;5.10;99.90;;;;;;4998425;28;20041;-62
2020/12/07 03:25:47;;;;;;;19.30;7.88;;;5.10;99.90;;;;;;5001110;28;20687;-60
2020/12/07 03:28:13;;;;;;;18.20;8.00;;;5.10;99.90;;;;;;4998413;28;20026;-61
2020/12/07 03:30:39;;;;;;;18.92;8.15;;;5.10;99.90;;;;;;4999988;28;20109;-60
2020/12/07 03:33:04;;;;;;;17.80;8.45;;;5.10;99.90;;;;;;4997987;28;20439;-60
2020/12/07 03:35:30;;;;;;;17.67;8.05;;;5.10;99.90;;;;;;5001921;28;20062;-61
2020/12/07 03:37:55;;;;;;;29.48;8.57;;;5.10;99.90;;;;;;4999753;28;20030;-61
2020/12/07 03:40:21;;;;;;;23.27;9.15;;;5.10;99.90;;;;;;4997744;28;20046;-61
2020/12/07 03:42:46;;;;;;;20.90;7.93;;;5.10;99.90;;;;;;5001065;28;20042;-61
2020/12/07 03:45:12;;;;;;;17.05;7.05;;;5.10;99.90;;;;;;4998033;28;20030;-61
2020/12/07 03:47:37;;;;;;;15.23;6.95;;;5.10;99.90;;;;;;5000621;28;20029;-61
2020/12/07 03:50:04;;;;;;;18.00;7.55;;;5.10;99.90;;;;;;4994503;28;20061;-59
2020/12/07 03:52:29;;;;;;;16.60;7.78;;;5.10;99.90;;;;;;5000259;28;20085;-59
2020/12/07 03:54:55;;;;;;;16.95;6.88;;;5.10;99.90;;;;;;4999306;28;20721;-60
2020/12/07 03:57:20;;;;;;;17.92;6.97;;;5.10;99.90;;;;;;4998902;28;20610;-60
2020/12/07 03:59:46;;;;;;;14.57;6.97;;;5.10;99.90;;;;;;4996749;28;20077;-62
2020/12/07 04:02:11;;;;;;;16.48;7.85;;;5.10;99.90;;;;;;5001449;28;20042;-60
2020/12/07 04:04:46;;;;;;;16.02;7.25;;;5.10;99.90;;;;;;4998287;28;20034;-62
2020/12/07 04:07:11;;;;;;;20.65;7.47;;;5.10;99.90;;;;;;4992848;28;20066;-60
2020/12/07 04:09:37;;;;;;;16.20;7.22;;;5.10;99.90;;;;;;5001314;28;20447;-62
2020/12/07 04:12:02;;;;;;;15.27;6.55;;;5.10;99.90;;;;;;4998041;28;20066;-61
2020/12/07 04:14:28;;;;;;;18.80;6.82;;;5.10;99.90;;;;;;4999872;28;20038;-60
2020/12/07 04:16:54;;;;;;;19.92;7.95;;;5.10;99.90;;;;;;4996404;28;20030;-60
2020/12/07 04:19:19;;;;;;;14.15;6.88;;;5.20;99.90;;;;;;4999901;28;20034;-62
2020/12/07 04:21:45;;;;;;;17.65;6.47;;;5.10;99.90;;;;;;4997725;28;20406;-61
2020/12/07 04:24:10;;;;;;;15.30;6.97;;;5.10;99.90;;;;;;5000620;28;20056;-60
2020/12/07 04:26:36;;;;;;;16.63;7.78;;;5.20;99.90;;;;;;4996284;28;20030;-61
2020/12/07 04:29:02;;;;;;;15.63;6.70;;;5.10;99.90;;;;;;4999597;28;20636;-60
2020/12/07 04:31:27;;;;;;;18.05;6.90;;;5.20;99.90;;;;;;4997975;28;20061;-61
2020/12/07 04:33:53;;;;;;;17.55;7.07;;;5.20;99.90;;;;;;4998453;28;20034;-60
2020/12/07 04:36:18;;;;;;;19.25;6.78;;;5.20;99.90;;;;;;4999496;28;20375;-62
2020/12/07 04:38:44;;;;;;;14.25;6.05;;;5.20;99.90;;;;;;5028655;23;20061;-67
2020/12/07 04:41:09;;;;;;;15.02;6.07;;;5.20;99.90;;;;;;5014481;28;20033;-68
2020/12/07 04:43:35;;;;;;;14.88;5.78;;;5.20;99.90;;;;;;5020432;28;20071;-68
2020/12/07 04:46:02;;;;;;;21.45;5.95;;;5.20;99.90;;;;;;5016069;28;20498;-68
2020/12/07 04:48:29;;;;;;;13.82;5.72;;;5.20;99.90;;;;;;5018257;28;20065;-67
2020/12/07 04:50:56;;;;;;;11.15;5.40;;;5.20;99.90;;;;;;5038000;28;20026;-68
2020/12/07 04:53:22;;;;;;;15.88;6.00;;;5.30;99.90;;;;;;5041651;28;20486;-68
2020/12/07 04:55:49;;;;;;;14.23;5.25;;;5.20;99.90;;;;;;5018426;28;20029;-68
2020/12/07 04:58:15;;;;;;;10.98;4.80;;;5.30;99.90;;;;;;5016987;28;20022;-68
2020/12/07 05:00:41;;;;;;;10.63;5.35;;;5.30;99.90;;;;;;5043911;28;20036;-67
2020/12/07 05:03:07;;;;;;;11.88;4.95;;;5.30;99.90;;;;;;5040001;28;20055;-67
2020/12/07 05:05:33;;;;;;;12.32;4.80;;;5.30;99.90;;;;;;5020056;28;20037;-68
2020/12/07 05:07:59;;;;;;;12.30;4.88;;;5.30;99.90;;;;;;5016034;28;20030;-68
2020/12/07 05:10:38;;;;;;;9.35;4.38;;;5.30;99.90;;;;;;5019154;28;20026;-68
2020/12/07 05:15:45;;;;;;;10.57;4.07;;;5.40;99.90;;;;;;5015272;28;20041;-68
2020/12/07 05:18:10;;;;;;;7.60;3.63;;;5.40;99.90;;;;;;5019826;28;20689;-68
2020/12/07 05:20:36;;;;;;;8.63;4.38;;;5.40;99.90;;;;;;5036873;28;20065;-68
2020/12/07 05:23:02;;;;;;;10.00;3.95;;;5.40;99.90;;;;;;5043307;28;20029;-68
2020/12/07 05:25:31;;;;;;;9.40;4.50;;;5.40;99.90;;;;;;5016819;28;20033;-66
2020/12/07 05:27:59;;;;;;;6.65;4.03;;;5.40;99.90;;;;;;5042930;28;20042;-68
2020/12/07 05:30:39;;;;;;;12.35;5.15;;;5.40;99.90;;;;;;5018195;28;20088;-68
2020/12/07 05:33:05;;;;;;;12.30;4.20;;;5.40;99.90;;;;;;5016592;28;20041;-71
2020/12/07 05:35:38;;;;;;;11.05;4.60;;;5.50;99.90;;;;;;5019669;28;20035;-67
2020/12/07 05:38:05;;;;;;;11.27;5.00;;;5.50;99.90;;;;;;5008340;28;20037;-67
2020/12/07 05:40:31;;;;;;;9.55;4.55;;;5.50;99.90;;;;;;5017991;28;20545;-68
2020/12/07 05:42:57;;;;;;;11.30;5.53;;;5.50;99.90;;;;;;5022260;28;20042;-68
2020/12/07 05:45:24;;;;;;;17.20;4.78;;;5.50;99.90;;;;;;5021521;28;20045;-67
2020/12/07 05:47:52;;;;;;;11.80;4.72;;;5.60;99.90;;;;;;5046075;28;20398;-68
2020/12/07 05:50:19;;;;;;;12.70;4.75;;;5.60;99.90;;;;;;5041479;28;20383;-68
2020/12/07 05:52:51;;;;;;;10.65;4.40;;;5.60;99.90;;;;;;5009505;28;20058;-68
2020/12/07 05:55:18;;;;;;;9.38;3.92;;;5.60;99.90;;;;;;5013446;28;20053;-68
2020/12/07 05:58:06;;;;;;;9.98;3.70;;;5.50;99.90;;;;;;5006492;28;20104;-68
2020/12/07 06:00:34;;;;;;;8.55;3.47;;;5.50;99.90;;;;;;5014291;28;20038;-68
2020/12/07 06:03:01;;;;;;;6.72;3.05;;;5.60;99.90;;;;;;5020513;28;20038;-68
2020/12/07 06:05:27;;;;;;;12.85;3.08;;;5.60;99.90;;;;;;5040293;28;20089;-68
2020/12/07 06:08:09;;;;;;;11.85;2.58;;;5.60;99.90;;;;;;5019442;28;20608;-67
2020/12/07 06:10:43;;;;;;;6.85;2.75;;;5.60;99.90;;;;;;5015619;28;20037;-67
2020/12/07 06:13:15;;;;;;;14.48;3.30;;;5.60;99.90;;;;;;5015460;28;20525;-68
2020/12/07 06:15:44;;;;;;;8.90;2.70;;;5.60;99.90;;;;;;5022167;28;20033;-67
2020/12/07 06:18:28;;;;;;;8.95;2.90;;;5.60;99.90;;;;;;5020593;28;20037;-68
2020/12/07 06:21:17;;;;;;;6.28;2.55;;;5.60;99.90;;;;;;5038965;28;20052;-68
2020/12/07 06:23:44;;;;;;;5.55;1.75;;;5.60;99.90;;;;;;5011083;28;20048;-68
2020/12/07 06:26:18;;;;;;;7.35;2.03;;;5.60;99.90;;;;;;5020305;28;20037;-68
2020/12/07 06:28:46;;;;;;;3.38;1.60;;;5.60;99.90;;;;;;5021086;28;20581;-68
2020/12/07 06:31:16;;;;;;;4.15;1.40;;;5.60;99.90;;;;;;5020481;28;20030;-68
2020/12/07 06:33:47;;;;;;;3.17;1.80;;;5.60;99.90;;;;;;5018504;28;20113;-68
2020/12/07 06:36:28;;;;;;;;;;;5.60;99.90;;;;;;5016868;28;20033;-68
2020/12/07 06:39:14;;;;;;;3.72;1.60;;;5.60;99.90;;;;;;5020666;28;19921;-68
2020/12/07 06:41:44;;;;;;;10.77;2.55;;;5.60;99.90;;;;;;5014755;28;20037;-68
2020/12/07 06:44:20;;;;;;;5.32;1.75;;;5.60;99.90;;;;;;5012866;28;20037;-68
2020/12/07 06:46:55;;;;;;;4.88;2.40;;;5.60;99.90;;;;;;5012221;28;20034;-67
2020/12/07 06:49:50;;;;;;;9.30;2.85;;;5.60;99.90;;;;;;5009740;28;20441;-67
2020/12/07 06:52:22;;;;;;;8.10;3.30;;;5.60;99.90;;;;;;5011392;28;20063;-68
2020/12/07 06:55:05;;;;;;;6.15;3.00;;;5.60;99.90;;;;;;5007599;28;20026;-68
2020/12/07 06:57:42;;;;;;;5.22;3.17;;;5.60;99.90;;;;;;5009940;28;20530;-68
2020/12/07 07:00:29;;;;;;;8.63;4.20;;;5.60;99.90;;;;;;5009390;28;20513;-68
2020/12/07 07:02:57;;;;;;;10.52;4.32;;;5.60;99.90;;;;;;5009407;28;20080;-68
2020/12/07 07:05:25;;;;;;;12.73;4.50;;;5.60;99.90;;;;;;5010703;28;20041;-69
2020/12/07 07:07:52;;;;;;;9.43;4.53;;;5.60;99.90;;;;;;5009165;28;20026;-68
2020/12/07 07:10:18;;;;;;;12.10;5.00;;;5.60;99.90;;;;;;5009388;28;20077;-68
2020/12/07 07:12:45;;;;;;;11.95;4.88;;;5.60;99.90;;;;;;5013331;28;20073;-68
2020/12/07 07:15:12;;;;;;;10.65;5.50;;;5.60;99.90;;;;;;5011029;28;20056;-68
2020/12/07 07:17:42;;;;;;;9.45;4.70;;;5.60;99.90;;;;;;5026729;28;20037;-68
2020/12/07 07:20:13;;;;;;;8.80;3.65;;;5.60;99.90;;;;;;5008609;28;20071;-67
2020/12/07 07:22:44;;;;;;;15.35;5.18;;;5.60;99.90;;;;;;5009987;28;20038;-68
2020/12/07 07:28:09;;;;;;;15.63;5.13;;;5.60;99.90;;;;;;5012255;28;20422;-67
2020/12/07 07:30:35;;;;;;;16.45;5.05;;;5.50;99.90;;;;;;5011788;28;20045;-67
2020/12/07 07:33:01;;;;;;;13.65;5.30;;;5.60;99.90;;;;;;5008538;28;20029;-67
2020/12/07 07:35:28;;;;;;;10.82;5.80;;;5.60;99.90;;;;;;5009542;28;20057;-67
2020/12/07 07:37:54;;;;;;;12.15;5.78;;;5.60;99.90;;;;;;5011822;28;20037;-68
2020/12/07 07:40:22;;;;;;;13.75;6.00;;;5.60;99.90;;;;;;5009887;28;20053;-68
2020/12/07 07:42:55;;;;;;;17.95;5.45;;;5.60;99.90;;;;;;5012565;28;20057;-68
2020/12/07 07:45:22;;;;;;;12.98;5.38;;;5.60;99.90;;;;;;5009613;28;20088;-72
2020/12/07 07:48:07;;;;;;;10.73;5.72;;;5.60;99.90;;;;;;5013802;28;20098;-68
2020/12/07 08:11:25;;;;;;;36.47;6.65;;;5.60;99.90;;;;;;5011551;28;20508;-68
2020/12/07 08:15:18;;;;;;;19.30;7.18;;;5.60;99.90;;;;;;5010930;28;19970;-68
2020/12/07 08:15:55;;;;;;;15.98;6.32;;;5.50;99.90;;;;;;5007855;28;20045;-67
2020/12/07 08:18:55;;;;;;;14.98;7.15;;;5.60;99.90;;;;;;5012190;28;20394;-67
2020/12/07 08:21:28;;;;;;;17.48;5.45;;;5.60;99.90;;;;;;5022201;28;20049;-67
2020/12/07 08:23:55;;;;;;;12.32;5.10;;;5.60;99.90;;;;;;5009359;28;20182;-68
2020/12/07 08:26:21;;;;;;;11.80;5.60;;;5.60;99.90;;;;;;5010978;28;20034;-68
2020/12/07 08:28:53;;;;;;;17.50;6.60;;;5.70;99.90;;;;;;5009133;28;20157;-68
2020/12/07 08:31:19;;;;;;;12.63;5.00;;;5.60;99.90;;;;;;5011431;28;20041;-68
2020/12/07 08:34:07;;;;;;;12.63;4.70;;;5.60;99.90;;;;;;5011603;28;20037;-67
2020/12/07 08:36:34;;;;;;;10.50;5.00;;;5.60;99.90;;;;;;5010162;28;20030;-68
2020/12/07 08:39:00;;;;;;;10.13;5.18;;;5.60;99.90;;;;;;5010907;28;20038;-67
2020/12/07 08:41:28;;;;;;;11.15;4.90;;;5.60;99.90;;;;;;5008582;28;20437;-68
2020/12/07 08:43:59;;;;;;;14.23;4.60;;;5.60;99.90;;;;;;5010138;28;20033;-68
2020/12/07 08:46:27;;;;;;;11.45;4.55;;;5.60;99.90;;;;;;5009080;28;20030;-67
2020/12/07 08:48:53;;;;;;;14.38;5.32;;;5.60;99.90;;;;;;5008937;28;20030;-67
2020/12/07 08:51:22;;;;;;;7.55;3.92;;;5.70;99.90;;;;;;5010280;28;20048;-66
2020/12/07 08:53:48;;;;;;;9.20;4.30;;;5.70;99.90;;;;;;5010043;28;20045;-66
2020/12/07 08:56:14;;;;;;;8.07;4.07;;;5.70;99.90;;;;;;5010595;28;20029;-68
2020/12/07 08:58:39;;;;;;;15.50;4.18;;;5.70;99.90;;;;;;5011139;28;20033;-67
2020/12/07 09:01:07;;;;;;;11.73;3.60;;;5.70;99.90;;;;;;5006720;28;20116;-68
2020/12/07 09:03:33;;;;;;;15.65;3.97;;;5.70;99.90;;;;;;5008997;28;20037;-68
2020/12/07 09:06:06;;;;;;;10.52;3.30;;;5.70;99.90;;;;;;5007246;28;20044;-67
2020/12/07 09:08:32;;;;;;;9.88;3.10;;;5.70;99.90;;;;;;5026402;28;20400;-68
2020/12/07 09:10:58;;;;;;;8.05;3.53;;;5.70;99.90;;;;;;5008170;28;20041;-68
2020/12/07 09:13:24;;;;;;;11.23;2.65;;;5.80;99.90;;;;;;5009638;28;20046;-68
2020/12/07 09:15:51;;;;;;;6.25;2.83;;;5.80;99.90;;;;;;5010109;28;20104;-68
2020/12/07 09:18:16;;;;;;;8.70;3.03;;;5.80;99.90;;;;;;5007558;28;20038;-70
2020/12/07 09:20:42;;;;;;;9.13;3.50;;;5.80;99.90;;;;;;5006924;28;20510;-68
2020/12/07 09:23:07;;;;;;;14.25;4.88;;;5.90;99.90;;;;;;5010615;28;20084;-68
2020/12/07 09:25:33;;;;;;;12.10;4.95;;;5.90;99.90;;;;;;5008409;28;20044;-68
2020/12/07 09:27:59;;;;;;;12.55;5.10;;;5.90;99.90;;;;;;5010375;28;20407;-68
2020/12/07 09:30:25;;;;;;;13.90;5.22;;;5.90;99.90;;;;;;5026682;28;20077;-67
2020/12/07 09:32:50;;;;;;;12.68;5.65;;;5.80;99.90;;;;;;5004923;28;20044;-67
2020/12/07 09:35:16;;;;;;;11.18;5.28;;;5.80;99.90;;;;;;5009757;28;20050;-67
2020/12/07 09:37:42;;;;;;;12.55;5.00;;;5.80;99.90;;;;;;5009143;28;20490;-68
2020/12/07 09:40:10;;;;;;;14.75;5.60;;;5.80;99.90;;;;;;5009997;28;20499;-68
2020/12/07 09:42:37;;;;;;;10.50;5.68;;;5.80;99.90;;;;;;5009640;28;20046;-68
2020/12/07 09:45:03;;;;;;;10.82;5.60;;;5.80;99.90;;;;;;5006908;28;20599;-67
2020/12/07 09:47:29;;;;;;;12.07;4.95;;;5.80;99.90;;;;;;5009302;28;20029;-68
2020/12/07 09:49:54;;;;;;;9.23;5.00;;;5.80;99.90;;;;;;5008288;28;20430;-67
2020/12/07 09:52:20;;;;;;;8.95;4.75;;;5.80;99.90;;;;;;5008229;28;20030;-68
2020/12/07 09:54:47;;;;;;;16.45;5.68;;;5.80;99.90;;;;;;5008227;28;20045;-68
2020/12/07 09:57:13;;;;;;;10.48;4.30;;;5.70;99.90;;;;;;5010553;28;20265;-68
2020/12/07 09:59:39;;;;;;;9.73;4.40;;;5.70;99.90;;;;;;5009376;28;20034;-67
2020/12/07 10:02:04;;;;;;;8.90;4.90;;;5.70;99.90;;;;;;5008516;28;20033;-68
2020/12/07 10:04:30;;;;;;;10.93;5.00;;;5.80;99.90;;;;;;5006115;28;20037;-67
2020/12/07 10:06:55;;;;;;;7.82;4.53;;;5.70;99.90;;;;;;5008906;28;20078;-68
2020/12/07 10:09:21;;;;;;;10.77;5.07;;;5.70;99.90;;;;;;5010277;28;20041;-68
2020/12/07 10:11:47;;;;;;;11.27;5.63;;;5.70;99.90;;;;;;5006558;28;20087;-67
2020/12/07 10:14:14;;;;;;;17.85;6.07;;;5.70;99.90;;;;;;5008919;28;20041;-67
2020/12/07 10:16:43;;;;;;;9.82;5.25;;;5.60;99.90;;;;;;5007952;28;20038;-67
2020/12/07 10:19:10;;;;;;;11.93;5.30;;;5.70;99.90;;;;;;5009976;28;20064;-67
2020/12/07 10:21:35;;;;;;;9.27;5.28;;;5.70;99.90;;;;;;5007215;28;20403;-68
2020/12/07 10:24:01;;;;;;;8.40;4.40;;;5.70;99.90;;;;;;5007027;28;20034;-67
2020/12/07 10:26:26;;;;;;;8.20;4.18;;;5.70;99.90;;;;;;5008466;28;20041;-67
2020/12/07 10:28:52;;;;;;;10.57;4.65;;;5.80;99.90;;;;;;5012540;28;20026;-67
2020/12/07 10:31:19;;;;;;;11.90;5.25;;;5.80;99.90;;;;;;5011997;28;20037;-68
2020/12/07 10:33:46;;;;;;;13.68;6.18;;;5.80;99.90;;;;;;5010966;28;20145;-68
2020/12/07 10:36:12;;;;;;;12.55;5.47;;;5.80;99.90;;;;;;5010660;28;20042;-67
2020/12/07 10:38:38;;;;;;;14.68;6.22;;;5.80;99.90;;;;;;5013536;28;20528;-67
2020/12/07 10:41:03;;;;;;;15.50;7.63;;;5.80;99.90;;;;;;5010302;28;20161;-66
2020/12/07 10:43:30;;;;;;;15.20;7.13;;;5.80;99.90;;;;;;5013026;28;20041;-67
2020/12/07 10:45:56;;;;;;;16.85;8.13;;;5.80;99.90;;;;;;5011955;28;20392;-66
2020/12/07 10:48:22;;;;;;;15.23;8.27;;;5.80;99.90;;;;;;5011331;28;20033;-68
2020/12/07 10:50:47;;;;;;;15.60;8.32;;;5.80;99.90;;;;;;5011355;28;20445;-68
2020/12/07 10:53:13;;;;;;;20.85;8.88;;;5.80;99.90;;;;;;5010423;28;20372;-67
2020/12/07 10:55:39;;;;;;;20.77;10.00;;;5.80;99.90;;;;;;5012250;28;20559;-66
2020/12/07 10:58:05;;;;;;;22.33;10.25;;;5.80;99.90;;;;;;5010451;28;20105;-67
2020/12/07 11:00:30;;;;;;;20.65;10.20;;;5.80;99.90;;;;;;5010096;28;20129;-68
2020/12/07 11:02:56;;;;;;;19.75;10.25;;;5.80;99.90;;;;;;5011009;28;20091;-66
2020/12/07 11:05:21;;;;;;;21.55;9.70;;;5.80;99.90;;;;;;5011503;28;20076;-67
2020/12/07 11:07:50;;;;;;;21.48;10.30;;;5.70;99.90;;;;;;5011138;28;20041;-66
2020/12/07 11:10:15;;;;;;;23.95;11.15;;;5.70;99.90;;;;;;5011416;28;20049;-67
2020/12/07 11:12:43;;;;;;;23.80;11.95;;;5.60;99.90;;;;;;5009999;28;20115;-67
2020/12/07 11:15:09;;;;;;;26.35;11.15;;;5.60;99.90;;;;;;5009166;28;20120;-67
2020/12/07 11:17:35;;;;;;;31.17;12.15;;;5.60;99.90;;;;;;5012535;28;20129;-67
2020/12/07 11:20:00;;;;;;;30.77;13.57;;;5.60;99.90;;;;;;5014610;28;20034;-66
2020/12/07 11:22:26;;;;;;;35.70;14.75;;;5.60;99.90;;;;;;5014617;28;20033;-67
2020/12/07 11:24:51;;;;;;;33.80;13.40;;;5.50;99.90;;;;;;5010375;28;20479;-66
2020/12/07 11:27:17;;;;;;;37.13;14.30;;;5.50;99.90;;;;;;5011833;28;20041;-66
2020/12/07 11:29:42;;;;;;;35.00;13.65;;;5.50;99.90;;;;;;5009372;28;20040;-69
2020/12/07 11:32:08;;;;;;;32.95;14.50;;;5.50;99.90;;;;;;5008294;28;20045;-66
2020/12/07 11:34:33;;;;;;;36.95;14.25;;;5.40;99.90;;;;;;5013808;28;20034;-66
2020/12/07 11:36:59;;;;;;;37.38;15.15;;;5.50;99.90;;;;;;5010224;28;20030;-68
2020/12/07 11:42:19;;;;;;;36.80;16.05;;;5.40;99.90;;;;;;5011072;28;20033;-66
2020/12/07 11:44:46;;;;;;;34.40;14.88;;;5.40;99.90;;;;;;5007543;28;20467;-67
2020/12/07 11:47:13;;;;;;;32.28;14.55;;;5.40;99.90;;;;;;5010982;28;20443;-66
2020/12/07 11:49:39;;;;;;;30.85;14.23;;;5.30;99.90;;;;;;5009810;28;20386;-66
2020/12/07 11:52:06;;;;;;;37.40;14.25;;;5.30;99.90;;;;;;5010429;28;20030;-67
2020/12/07 11:54:32;;;;;;;29.23;13.82;;;5.30;99.90;;;;;;5009935;28;20053;-66
2020/12/07 11:57:03;;;;;;;37.47;14.95;;;5.40;99.90;;;;;;5010404;28;20057;-69
2020/12/07 11:59:28;;;;;;;33.65;13.48;;;5.40;99.90;;;;;;5009304;28;20046;-67
2020/12/07 12:01:54;;;;;;;31.58;14.35;;;5.40;99.90;;;;;;5008602;28;20044;-67
2020/12/07 12:04:19;;;;;;;35.83;14.60;;;5.40;99.90;;;;;;5012537;28;20067;-67
2020/12/07 12:06:45;;;;;;;37.20;14.57;;;5.40;99.90;;;;;;5009424;28;20033;-66
2020/12/07 12:09:12;;;;;;;35.55;16.70;;;5.30;99.90;;;;;;5008744;28;20040;-66
2020/12/07 12:11:38;;;;;;;33.25;14.98;;;5.30;99.90;;;;;;5011227;28;20034;-66
2020/12/07 12:14:06;;;;;;;44.05;15.23;;;5.30;99.90;;;;;;5009628;28;20030;-66
2020/12/07 12:16:32;;;;;;;40.35;16.23;;;5.30;99.90;;;;;;5011498;28;20034;-66
2020/12/07 12:18:59;;;;;;;41.15;16.42;;;5.30;99.90;;;;;;5009585;28;20074;-67
2020/12/07 12:21:28;;;;;;;39.78;15.52;;;5.30;99.90;;;;;;5012337;28;20533;-66
2020/12/07 12:23:54;;;;;;;40.88;16.42;;;5.30;99.90;;;;;;5008157;28;20041;-67
2020/12/07 12:26:20;;;;;;;43.35;17.27;;;5.30;99.90;;;;;;5014599;28;20046;-67
2020/12/07 12:28:47;;;;;;;36.00;14.77;;;5.30;99.90;;;;;;5013897;28;20068;-67
2020/12/07 12:31:13;;;;;;;40.00;15.35;;;5.30;99.90;;;;;;5010516;28;20030;-66
2020/12/07 12:33:38;;;;;;;37.70;14.88;;;5.30;99.90;;;;;;5008262;28;20030;-68
2020/12/07 12:36:05;;;;;;;38.20;14.88;;;5.30;99.90;;;;;;5007707;28;20498;-66
2020/12/07 12:38:31;;;;;;;33.00;14.95;;;5.30;99.90;;;;;;5006989;28;20542;-66
2020/12/07 12:40:58;;;;;;;32.42;14.25;;;5.30;99.90;;;;;;5007612;28;20016;-66
2020/12/07 12:43:24;;;;;;;33.60;15.43;;;5.30;99.90;;;;;;5015130;28;20033;-68
2020/12/07 12:45:49;;;;;;;30.35;13.80;;;5.40;99.90;;;;;;5008025;28;20501;-67
2020/12/07 12:48:15;;;;;;;34.78;14.73;;;5.40;99.90;;;;;;5008091;28;20018;-66
2020/12/07 12:50:40;;;;;;;31.50;13.65;;;5.40;99.90;;;;;;5009927;28;20116;-67
2020/12/07 12:53:06;;;;;;;33.55;13.90;;;5.50;99.90;;;;;;5006467;28;20021;-67
2020/12/07 12:55:32;;;;;;;31.58;13.93;;;5.40;99.90;;;;;;5011182;28;20392;-67
2020/12/07 12:57:57;;;;;;;32.40;13.82;;;5.40;99.90;;;;;;5008189;28;20053;-66
2020/12/07 13:00:23;;;;;;;35.63;15.30;;;5.50;99.90;;;;;;5006986;28;20034;-68
2020/12/07 13:02:48;;;;;;;32.45;13.98;;;5.50;99.90;;;;;;5010106;28;20413;-67
2020/12/07 13:05:14;;;;;;;37.25;14.68;;;5.50;99.90;;;;;;5009352;28;20026;-66
2020/12/07 13:07:41;;;;;;;35.47;15.43;;;5.50;99.90;;;;;;5009056;28;20038;-66
2020/12/07 13:10:07;;;;;;;36.92;15.82;;;5.40;99.90;;;;;;5008013;28;20124;-67
2020/12/07 13:12:32;;;;;;;40.58;15.75;;;5.40;99.90;;;;;;5009333;28;20113;-69
2020/12/07 13:14:58;;;;;;;40.47;16.38;;;5.40;99.90;;;;;;5007281;28;20034;-67